Time;durP1;ratioP1;P1;durP2;ratioP2;P2;SDS_P1;SDS_P2;PMS_P1;PMS_P2;Temp;Humidity;BMP_temperature;BMP_pressure;BME280_temperature;BME280_humidity;BME280_pressure;Samples;Min_cycle;Max_cycle;Signal;HPM_P1;HPM_P2
2022/04/16 00:00:11;;;;;;;6.95;3.25;;;;;;;;;;5048122;28;20025;-54
2022/04/16 00:02:37;;;;;;;9.45;3.20;;;;;;;;;;5046628;28;20102;-53
2022/04/16 00:05:03;;;;;;;6.93;3.13;;;;;;;;;;5048185;28;20025;-53
2022/04/16 00:07:29;;;;;;;5.95;3.03;;;;;;;;;;5046061;28;20036;-54
2022/04/16 00:09:55;;;;;;;7.10;3.20;;;;;;;;;;5048340;28;20060;-54
2022/04/16 00:12:21;;;;;;;7.53;3.17;;;;;;;;;;5048563;28;20408;-50
2022/04/16 00:14:49;;;;;;;5.68;2.88;;;;;;;;;;5047993;28;20032;-53
2022/04/16 00:17:16;;;;;;;5.28;2.75;;;;;;;;;;5048246;28;20060;-54
2022/04/16 00:19:43;;;;;;;5.25;2.70;;;;;;;;;;5048248;28;20033;-53
2022/04/16 00:22:12;;;;;;;8.50;3.25;;;;;;;;;;5039648;28;20092;-50
2022/04/16 00:24:38;;;;;;;7.93;2.95;;;;;;;;;;5047800;28;20506;-53
2022/04/16 00:27:04;;;;;;;6.03;2.90;;;;;;;;;;5048141;28;20025;-53
2022/04/16 00:29:30;;;;;;;5.43;2.70;;;;;;;;;;5048111;28;20078;-54
2022/04/16 00:31:56;;;;;;;7.38;3.50;;;;;;;;;;5048300;28;20464;-51
2022/04/16 00:34:22;;;;;;;7.13;2.85;;;;;;;;;;5047888;28;20111;-52
2022/04/16 00:36:48;;;;;;;6.05;3.10;;;;;;;;;;5046303;28;20060;-52
2022/04/16 00:39:15;;;;;;;6.47;3.40;;;;;;;;;;5048134;28;20021;-52
2022/04/16 00:41:43;;;;;;;8.25;3.10;;;;;;;;;;5048122;28;20036;-53
2022/04/16 00:44:09;;;;;;;5.85;3.60;;;;;;;;;;5051561;28;20033;-51
2022/04/16 00:46:36;;;;;;;8.00;2.85;;;;;;;;;;5052112;28;20071;-53
2022/04/16 00:49:02;;;;;;;6.53;3.15;;;;;;;;;;5051356;28;20534;-53
2022/04/16 00:51:29;;;;;;;6.50;3.35;;;;;;;;;;5045496;28;20767;-50
2022/04/16 00:53:55;;;;;;;6.28;3.08;;;;;;;;;;5051872;28;20146;-51
2022/04/16 00:56:22;;;;;;;6.95;3.63;;;;;;;;;;5051233;28;20433;-53
2022/04/16 00:58:48;;;;;;;5.93;3.50;;;;;;;;;;5051862;28;20029;-51
2022/04/16 01:01:14;;;;;;;6.47;2.72;;;;;;;;;;5051054;28;20079;-48
2022/04/16 01:03:43;;;;;;;7.35;3.50;;;;;;;;;;5051246;28;20384;-53
2022/04/16 01:06:18;;;;;;;7.40;3.10;;;;;;;;;;5043845;28;20100;-52
2022/04/16 01:08:44;;;;;;;5.22;2.95;;;;;;;;;;5050599;28;20047;-50
2022/04/16 01:11:14;;;;;;;6.65;3.50;;;;;;;;;;5050989;28;20025;-51
2022/04/16 01:13:40;;;;;;;6.45;3.33;;;;;;;;;;5051867;28;20055;-53
2022/04/16 01:16:06;;;;;;;7.35;3.33;;;;;;;;;;5051390;28;20060;-52
2022/04/16 01:18:35;;;;;;;5.78;3.28;;;;;;;;;;5050974;28;20027;-50
2022/04/16 01:21:02;;;;;;;6.10;3.67;;;;;;;;;;5048514;28;20091;-51
2022/04/16 01:23:30;;;;;;;6.00;3.13;;;;;;;;;;5051421;28;20279;-51
2022/04/16 01:25:56;;;;;;;5.78;3.20;;;;;;;;;;5051237;28;20105;-52
2022/04/16 01:28:23;;;;;;;4.88;3.00;;;;;;;;;;5051637;28;20021;-53
2022/04/16 01:30:49;;;;;;;6.15;3.67;;;;;;;;;;5050720;28;20123;-53
2022/04/16 01:33:17;;;;;;;5.88;3.25;;;;;;;;;;5050741;28;20494;-53
2022/04/16 01:35:43;;;;;;;5.93;3.00;;;;;;;;;;5044574;28;20056;-54
2022/04/16 01:38:11;;;;;;;5.28;3.28;;;;;;;;;;5051311;28;20037;-50
2022/04/16 01:40:38;;;;;;;5.50;3.28;;;;;;;;;;5037755;28;20033;-52
2022/04/16 01:43:04;;;;;;;5.93;3.25;;;;;;;;;;5050096;28;20558;-53
2022/04/16 01:45:32;;;;;;;5.35;3.42;;;;;;;;;;5051217;28;20057;-49
2022/04/16 01:47:59;;;;;;;6.15;3.50;;;;;;;;;;5050721;28;20040;-53
2022/04/16 01:50:25;;;;;;;8.98;3.50;;;;;;;;;;5050790;28;20116;-51
2022/04/16 01:52:52;;;;;;;5.93;3.67;;;;;;;;;;5049994;28;20112;-52
2022/04/16 01:55:18;;;;;;;6.10;3.63;;;;;;;;;;5040455;28;20037;-48
2022/04/16 01:57:44;;;;;;;9.07;4.30;;;;;;;;;;5044125;28;20087;-47
2022/04/16 02:00:13;;;;;;;6.00;3.80;;;;;;;;;;5050208;28;20029;-48
2022/04/16 02:02:39;;;;;;;9.48;3.70;;;;;;;;;;5049736;28;20041;-49
2022/04/16 02:05:06;;;;;;;5.65;3.38;;;;;;;;;;5049309;28;20027;-50
2022/04/16 02:07:33;;;;;;;5.43;3.03;;;;;;;;;;5050274;28;20028;-53
2022/04/16 02:10:00;;;;;;;6.63;3.72;;;;;;;;;;5050316;28;20027;-50
2022/04/16 02:12:26;;;;;;;8.30;3.97;;;;;;;;;;5050097;28;20063;-51
2022/04/16 02:14:52;;;;;;;7.30;3.55;;;;;;;;;;5050119;28;20029;-52
2022/04/16 02:17:19;;;;;;;5.45;3.45;;;;;;;;;;5050543;28;20562;-51
2022/04/16 02:19:48;;;;;;;7.35;3.85;;;;;;;;;;5050592;28;20039;-53
2022/04/16 02:22:14;;;;;;;7.03;3.90;;;;;;;;;;5049056;28;20063;-51
2022/04/16 02:24:40;;;;;;;8.00;3.75;;;;;;;;;;5042405;28;20031;-53
2022/04/16 02:27:06;;;;;;;6.72;4.13;;;;;;;;;;5050264;28;20044;-53
2022/04/16 02:29:34;;;;;;;6.30;2.97;;;;;;;;;;5049844;28;20028;-52
2022/04/16 02:32:02;;;;;;;7.82;3.90;;;;;;;;;;5050124;28;20053;-51
2022/04/16 02:34:28;;;;;;;8.18;3.67;;;;;;;;;;5049738;28;20033;-53
2022/04/16 02:36:54;;;;;;;5.25;3.47;;;;;;;;;;5033788;28;20470;-52
2022/04/16 02:39:20;;;;;;;7.40;3.72;;;;;;;;;;5044838;28;20128;-54
2022/04/16 02:41:46;;;;;;;7.70;4.03;;;;;;;;;;5049658;28;20511;-54
2022/04/16 02:47:05;;;;;;;6.47;3.75;;;;;;;;;;5049236;28;20123;-50
2022/04/16 02:47:08;;;;;;;7.00;3.92;;;;;;;;;;5049625;28;20513;-53
2022/04/16 02:49:34;;;;;;;7.88;3.55;;;;;;;;;;5049454;28;20029;-51
2022/04/16 02:52:01;;;;;;;7.05;3.80;;;;;;;;;;5029859;28;21091;-51
2022/04/16 02:54:27;;;;;;;6.00;3.50;;;;;;;;;;5044124;28;20391;-54
2022/04/16 02:56:56;;;;;;;9.40;4.45;;;;;;;;;;5049370;28;20044;-52
2022/04/16 02:59:23;;;;;;;5.30;3.70;;;;;;;;;;5049460;28;20021;-52
2022/04/16 03:01:49;;;;;;;6.50;3.70;;;;;;;;;;5049226;28;20029;-52
2022/04/16 03:04:15;;;;;;;6.10;4.00;;;;;;;;;;5049247;28;20025;-53
2022/04/16 03:06:41;;;;;;;6.80;4.20;;;;;;;;;;5041679;28;20555;-52
2022/04/16 03:09:09;;;;;;;5.15;3.30;;;;;;;;;;5049273;28;20574;-50
2022/04/16 03:11:35;;;;;;;6.50;4.40;;;;;;;;;;5049239;28;20029;-50
2022/04/16 03:17:31;;;;;;;8.27;4.20;;;;;;;;;;5048964;28;20028;-51
2022/04/16 03:19:33;;;;;;;8.55;3.92;;;;;;;;;;5047745;28;20047;-53
2022/04/16 03:21:59;;;;;;;7.00;4.07;;;;;;;;;;5048677;28;20033;-51
2022/04/16 03:24:26;;;;;;;7.50;4.72;;;;;;;;;;5049016;28;20558;-52
2022/04/16 03:26:53;;;;;;;5.97;3.75;;;;;;;;;;5048923;28;20629;-52
2022/04/16 03:29:19;;;;;;;8.27;4.72;;;;;;;;;;5048243;28;20467;-50
2022/04/16 03:31:45;;;;;;;8.55;3.78;;;;;;;;;;5048301;28;20075;-50
2022/04/16 03:34:11;;;;;;;6.15;3.88;;;;;;;;;;5046640;28;20376;-52
2022/04/16 03:36:37;;;;;;;6.35;3.80;;;;;;;;;;5042386;28;20887;-50
2022/04/16 03:39:03;;;;;;;7.63;4.25;;;;;;;;;;5047757;28;20810;-51
2022/04/16 03:41:29;;;;;;;6.93;3.60;;;;;;;;;;5047495;28;20029;-49
2022/04/16 03:43:55;;;;;;;6.55;4.20;;;;;;;;;;5047983;28;20779;-53
2022/04/16 03:46:22;;;;;;;5.53;3.50;;;;;;;;;;5047832;28;20103;-53
2022/04/16 03:48:50;;;;;;;6.43;4.38;;;;;;;;;;5047859;28;20075;-51
2022/04/16 03:51:17;;;;;;;8.57;4.85;;;;;;;;;;5046843;28;20471;-52
2022/04/16 03:53:43;;;;;;;6.85;3.42;;;;;;;;;;5047666;28;20051;-53
2022/04/16 03:59:59;;;;;;;9.48;4.93;;;;;;;;;;5048192;28;20098;-50
2022/04/16 04:01:42;;;;;;;6.93;4.35;;;;;;;;;;5046977;28;20028;-50
2022/04/16 04:04:10;;;;;;;7.85;4.07;;;;;;;;;;5047274;28;20036;-54
2022/04/16 04:06:38;;;;;;;6.70;3.97;;;;;;;;;;5044543;28;20032;-54
2022/04/16 04:09:06;;;;;;;7.28;4.35;;;;;;;;;;5047712;28;20032;-54
2022/04/16 04:11:32;;;;;;;6.40;4.15;;;;;;;;;;5047531;28;20056;-52
2022/04/16 04:13:58;;;;;;;7.43;4.38;;;;;;;;;;5047383;28;20048;-52
2022/04/16 04:16:24;;;;;;;7.28;4.50;;;;;;;;;;5046839;28;20395;-50
2022/04/16 04:18:50;;;;;;;6.07;4.20;;;;;;;;;;5046721;28;20029;-49
2022/04/16 04:21:17;;;;;;;6.10;3.97;;;;;;;;;;5045357;28;20032;-52
2022/04/16 04:23:43;;;;;;;7.15;4.03;;;;;;;;;;5047059;28;20043;-49
2022/04/16 04:26:10;;;;;;;7.15;4.15;;;;;;;;;;5047513;28;20033;-52
2022/04/16 04:28:36;;;;;;;7.65;4.75;;;;;;;;;;5047400;28;20092;-49
2022/04/16 04:31:02;;;;;;;6.53;4.20;;;;;;;;;;5011562;28;1028562;-52
2022/04/16 04:33:28;;;;;;;7.40;4.55;;;;;;;;;;5047885;28;20025;-50
2022/04/16 04:35:54;;;;;;;9.80;4.45;;;;;;;;;;5047343;28;20565;-54
2022/04/16 04:38:20;;;;;;;19.88;14.30;;;;;;;;;;5048005;28;20040;-49
2022/04/16 04:40:46;;;;;;;22.67;15.25;;;;;;;;;;5048012;28;20029;-51
2022/04/16 04:43:12;;;;;;;21.52;16.65;;;;;;;;;;5047952;28;20508;-52
2022/04/16 04:45:38;;;;;;;31.98;17.08;;;;;;;;;;5047883;28;20029;-54
2022/04/16 04:48:05;;;;;;;23.85;18.23;;;;;;;;;;5047640;28;20029;-53
2022/04/16 04:50:31;;;;;;;24.13;17.42;;;;;;;;;;5045813;28;20051;-51
2022/04/16 04:52:57;;;;;;;22.40;18.27;;;;;;;;;;5035796;28;20108;-51
2022/04/16 04:55:23;;;;;;;22.88;18.08;;;;;;;;;;5047621;28;20100;-51
2022/04/16 04:57:54;;;;;;;23.13;17.50;;;;;;;;;;5047537;28;20510;-51
2022/04/16 05:00:20;;;;;;;26.38;18.73;;;;;;;;;;5037017;28;20036;-54
2022/04/16 05:02:50;;;;;;;24.23;18.15;;;;;;;;;;5047512;28;20499;-52
2022/04/16 05:05:16;;;;;;;24.30;17.25;;;;;;;;;;5045555;28;20029;-51
2022/04/16 05:07:42;;;;;;;23.15;17.40;;;;;;;;;;5028901;28;20076;-53
2022/04/16 05:10:09;;;;;;;24.38;17.85;;;;;;;;;;5047622;28;20871;-54
2022/04/16 05:12:35;;;;;;;26.25;17.67;;;;;;;;;;5047795;28;20497;-54
2022/04/16 05:15:01;;;;;;;22.20;17.63;;;;;;;;;;5043384;28;20139;-54
2022/04/16 05:17:28;;;;;;;26.00;18.52;;;;;;;;;;5036229;28;20551;-50
2022/04/16 05:19:54;;;;;;;24.17;17.67;;;;;;;;;;5045698;28;20032;-50
2022/04/16 05:22:20;;;;;;;22.08;18.30;;;;;;;;;;5040526;28;20052;-51
2022/04/16 05:24:46;;;;;;;24.50;17.90;;;;;;;;;;5037974;28;20053;-54
2022/04/16 05:27:12;;;;;;;22.42;18.25;;;;;;;;;;5036942;28;20049;-51
2022/04/16 05:30:04;;;;;;;25.98;20.58;;;;;;;;;;5042621;28;20528;-54
2022/04/16 05:32:50;;;;;;;21.77;17.67;;;;;;;;;;5042521;28;20496;-53
2022/04/16 05:35:16;;;;;;;23.70;18.45;;;;;;;;;;5043532;28;20251;-53
2022/04/16 05:37:42;;;;;;;22.88;18.13;;;;;;;;;;5041074;28;20120;-50
2022/04/16 05:40:09;;;;;;;21.60;16.50;;;;;;;;;;5044807;28;20033;-53
2022/04/16 05:42:41;;;;;;;22.48;16.20;;;;;;;;;;5041022;28;20471;-51
2022/04/16 05:45:08;;;;;;;19.02;15.38;;;;;;;;;;5044637;28;20040;-51
2022/04/16 05:47:34;;;;;;;20.30;16.00;;;;;;;;;;5045930;28;20049;-51
2022/04/16 05:50:00;;;;;;;24.40;16.70;;;;;;;;;;5042265;28;20052;-49
2022/04/16 05:52:26;;;;;;;21.50;15.82;;;;;;;;;;5040610;28;20033;-52
2022/04/16 05:54:52;;;;;;;24.48;15.77;;;;;;;;;;5043490;28;20154;-51
2022/04/16 05:57:20;;;;;;;23.15;14.80;;;;;;;;;;5044375;28;20041;-52
2022/04/16 05:59:46;;;;;;;20.73;14.93;;;;;;;;;;5039068;28;20029;-54
2022/04/16 06:02:12;;;;;;;20.77;13.15;;;;;;;;;;5041737;28;20048;-51
2022/04/16 06:04:38;;;;;;;18.83;14.10;;;;;;;;;;5038773;28;20806;-51
2022/04/16 06:07:05;;;;;;;21.00;14.18;;;;;;;;;;5046837;28;20031;-50
2022/04/16 06:09:31;;;;;;;16.95;12.48;;;;;;;;;;5038713;28;20063;-51
2022/04/16 06:12:05;;;;;;;19.52;12.68;;;;;;;;;;5044905;28;20028;-53
2022/04/16 06:14:31;;;;;;;15.85;12.23;;;;;;;;;;5038489;28;20550;-52
2022/04/16 06:16:57;;;;;;;18.60;12.02;;;;;;;;;;5046237;28;20463;-53
2022/04/16 06:19:23;;;;;;;20.17;13.48;;;;;;;;;;5038143;28;20079;-53
2022/04/16 06:21:50;;;;;;;16.70;11.98;;;;;;;;;;5049505;28;20036;-55
2022/04/16 06:24:16;;;;;;;14.77;11.30;;;;;;;;;;5049699;28;20033;-53
2022/04/16 06:26:42;;;;;;;20.85;10.90;;;;;;;;;;5049396;28;20451;-53
2022/04/16 06:29:09;;;;;;;16.00;10.45;;;;;;;;;;5049887;28;20487;-56
2022/04/16 06:31:35;;;;;;;21.60;11.15;;;;;;;;;;5049752;28;20041;-53
2022/04/16 06:34:01;;;;;;;20.75;11.48;;;;;;;;;;5043985;28;20434;-53
2022/04/16 06:36:27;;;;;;;21.65;10.85;;;;;;;;;;5049188;28;20036;-53
2022/04/16 06:38:53;;;;;;;29.77;10.48;;;;;;;;;;5049598;28;20037;-53
2022/04/16 06:41:19;;;;;;;23.73;10.88;;;;;;;;;;5048261;28;20029;-53
2022/04/16 06:43:45;;;;;;;24.67;9.77;;;;;;;;;;5049282;28;20033;-54
2022/04/16 06:46:12;;;;;;;24.88;9.50;;;;;;;;;;5049101;28;20376;-54
2022/04/16 06:48:38;;;;;;;25.70;10.23;;;;;;;;;;5049148;28;20033;-54
2022/04/16 06:51:04;;;;;;;28.27;12.75;;;;;;;;;;5046307;28;20056;-52
2022/04/16 06:53:31;;;;;;;28.08;17.42;;;;;;;;;;5049826;28;20025;-51
2022/04/16 06:56:00;;;;;;;30.05;19.80;;;;;;;;;;5049778;28;20391;-53
2022/04/16 06:58:29;;;;;;;22.65;17.75;;;;;;;;;;5048577;28;20506;-52
2022/04/16 07:00:58;;;;;;;27.52;16.73;;;;;;;;;;5048525;28;20086;-50
2022/04/16 07:03:26;;;;;;;23.38;14.85;;;;;;;;;;5048364;28;20037;-51
2022/04/16 07:05:52;;;;;;;26.65;14.48;;;;;;;;;;5032309;28;20033;-54
2022/04/16 07:08:18;;;;;;;25.65;14.15;;;;;;;;;;5048339;28;20036;-51
2022/04/16 07:10:44;;;;;;;26.80;13.38;;;;;;;;;;5048597;28;20039;-52
2022/04/16 07:13:10;;;;;;;21.33;13.70;;;;;;;;;;5048410;28;20025;-49
2022/04/16 07:15:36;;;;;;;25.48;14.70;;;;;;;;;;5036501;28;20037;-53
2022/04/16 07:18:03;;;;;;;18.20;13.70;;;;;;;;;;5038477;28;20032;-53
2022/04/16 07:20:29;;;;;;;27.55;12.35;;;;;;;;;;5041608;28;20044;-55
2022/04/16 07:22:55;;;;;;;31.75;12.07;;;;;;;;;;5036213;28;20041;-52
2022/04/16 07:25:26;;;;;;;22.15;13.20;;;;;;;;;;5046846;28;20036;-52
2022/04/16 07:27:51;;;;;;;26.50;12.65;;;;;;;;;;5047055;28;20029;-50
2022/04/16 07:30:18;;;;;;;18.85;11.68;;;;;;;;;;5047129;28;20115;-54
2022/04/16 07:32:44;;;;;;;17.88;11.75;;;;;;;;;;5046604;28;20610;-52
2022/04/16 07:35:10;;;;;;;18.98;10.73;;;;;;;;;;5047758;28;20529;-54
2022/04/16 07:37:36;;;;;;;19.55;10.48;;;;;;;;;;5031786;28;20639;-55
2022/04/16 07:40:02;;;;;;;17.48;11.50;;;;;;;;;;5048147;28;20086;-56
2022/04/16 07:42:29;;;;;;;16.50;10.73;;;;;;;;;;5048181;28;20140;-52
2022/04/16 07:44:55;;;;;;;22.17;11.50;;;;;;;;;;5047760;28;20033;-55
2022/04/16 07:47:21;;;;;;;14.63;9.32;;;;;;;;;;5048351;28;20179;-52
2022/04/16 07:49:47;;;;;;;16.52;9.60;;;;;;;;;;5047487;28;20096;-55
2022/04/16 07:52:13;;;;;;;20.90;9.68;;;;;;;;;;5047205;28;20047;-54
2022/04/16 07:54:39;;;;;;;21.13;10.02;;;;;;;;;;5048129;28;20454;-54
2022/04/16 07:57:06;;;;;;;17.38;8.38;;;;;;;;;;5047656;28;20028;-54
2022/04/16 07:59:32;;;;;;;13.13;8.57;;;;;;;;;;5047226;28;20027;-53
2022/04/16 08:01:58;;;;;;;15.57;7.82;;;;;;;;;;5047826;28;20032;-54
2022/04/16 08:04:24;;;;;;;14.82;8.57;;;;;;;;;;5045796;28;20032;-51
2022/04/16 08:06:50;;;;;;;14.50;8.25;;;;;;;;;;5048025;28;20032;-56
2022/04/16 08:09:17;;;;;;;12.90;8.15;;;;;;;;;;5046582;28;20036;-55
2022/04/16 08:11:46;;;;;;;13.88;7.75;;;;;;;;;;5046535;28;20139;-54
2022/04/16 08:14:12;;;;;;;13.23;7.80;;;;;;;;;;5046889;28;20104;-52
2022/04/16 08:16:38;;;;;;;13.60;8.63;;;;;;;;;;5047316;28;20025;-53
2022/04/16 08:19:04;;;;;;;14.98;6.68;;;;;;;;;;5039845;28;20060;-51
2022/04/16 08:21:32;;;;;;;17.77;12.75;;;;;;;;;;5039021;28;20073;-60
2022/04/16 08:24:12;;;;;;;19.35;14.45;;;;;;;;;;5039438;28;20084;-53
2022/04/16 08:26:38;;;;;;;20.30;14.07;;;;;;;;;;5046710;28;20036;-53
2022/04/16 08:29:04;;;;;;;20.15;14.80;;;;;;;;;;5047256;28;20399;-54
2022/04/16 08:31:30;;;;;;;19.98;15.40;;;;;;;;;;5039237;28;20605;-53
2022/04/16 08:33:56;;;;;;;19.92;14.85;;;;;;;;;;5032143;28;20117;-49
2022/04/16 08:36:22;;;;;;;19.83;13.45;;;;;;;;;;5045737;28;20033;-55
2022/04/16 08:38:48;;;;;;;21.17;15.15;;;;;;;;;;5047219;28;20036;-52
2022/04/16 08:41:14;;;;;;;19.55;15.15;;;;;;;;;;5047415;28;20535;-54
2022/04/16 08:43:44;;;;;;;17.58;13.40;;;;;;;;;;5047174;28;20465;-53
2022/04/16 08:46:10;;;;;;;20.10;13.77;;;;;;;;;;5046579;28;20044;-54
2022/04/16 08:48:37;;;;;;;21.85;15.13;;;;;;;;;;5046499;28;20358;-54
2022/04/16 08:51:03;;;;;;;21.42;14.70;;;;;;;;;;5043210;28;20033;-54
2022/04/16 08:53:30;;;;;;;20.42;13.90;;;;;;;;;;5038878;28;20112;-53
2022/04/16 08:55:55;;;;;;;18.48;13.82;;;;;;;;;;5047155;28;20025;-51
2022/04/16 08:58:23;;;;;;;16.40;12.63;;;;;;;;;;5047028;28;20040;-54
2022/04/16 09:00:49;;;;;;;22.75;13.27;;;;;;;;;;5047175;28;20399;-54
2022/04/16 09:03:17;;;;;;;20.73;14.07;;;;;;;;;;5046752;28;20048;-53
2022/04/16 09:05:43;;;;;;;23.73;14.25;;;;;;;;;;5050475;28;20029;-56
2022/04/16 09:08:09;;;;;;;23.75;13.70;;;;;;;;;;5049333;28;20443;-54
2022/04/16 09:10:41;;;;;;;21.98;13.55;;;;;;;;;;5050560;28;20063;-54
2022/04/16 09:13:07;;;;;;;18.92;12.68;;;;;;;;;;5050449;28;20033;-53
2022/04/16 09:15:34;;;;;;;21.25;13.02;;;;;;;;;;5033064;28;20044;-57
2022/04/16 09:18:02;;;;;;;17.88;12.93;;;;;;;;;;5046773;28;20037;-57
2022/04/16 09:20:33;;;;;;;19.27;13.23;;;;;;;;;;5045331;28;20463;-56
2022/04/16 09:23:00;;;;;;;20.58;12.38;;;;;;;;;;5046460;28;20040;-54
2022/04/16 09:25:29;;;;;;;20.25;12.85;;;;;;;;;;5037448;28;20021;-54
2022/04/16 09:27:55;;;;;;;17.60;12.80;;;;;;;;;;5044029;28;20079;-49
2022/04/16 09:30:25;;;;;;;15.55;11.98;;;;;;;;;;5042838;28;20060;-50
2022/04/16 09:32:52;;;;;;;15.85;11.82;;;;;;;;;;5041482;28;20029;-49
2022/04/16 09:35:46;;;;;;;17.73;12.85;;;;;;;;;;5046287;28;20033;-53
2022/04/16 09:38:12;;;;;;;16.27;13.00;;;;;;;;;;5039297;28;20041;-53
2022/04/16 09:40:38;;;;;;;15.90;12.38;;;;;;;;;;5042155;28;20487;-53
2022/04/16 09:43:06;;;;;;;17.55;12.88;;;;;;;;;;5042754;28;20544;-53
2022/04/16 09:45:32;;;;;;;16.73;11.57;;;;;;;;;;5050217;28;20170;-61
2022/04/16 09:47:59;;;;;;;17.20;12.32;;;;;;;;;;5042319;28;20025;-60
2022/04/16 09:50:26;;;;;;;17.38;12.23;;;;;;;;;;5039307;28;20107;-61
2022/04/16 09:53:00;;;;;;;18.25;12.32;;;;;;;;;;5049915;28;20033;-63
2022/04/16 09:55:27;;;;;;;25.42;12.45;;;;;;;;;;5050301;28;20024;-63
2022/04/16 09:57:56;;;;;;;16.73;10.98;;;;;;;;;;5041386;28;20021;-60
2022/04/16 10:00:23;;;;;;;18.92;11.93;;;;;;;;;;5048929;28;20055;-61
2022/04/16 10:02:49;;;;;;;17.67;11.15;;;;;;;;;;5039362;28;20115;-60
2022/04/16 10:05:16;;;;;;;20.23;11.45;;;;;;;;;;5045867;28;20029;-61
2022/04/16 10:07:43;;;;;;;17.33;10.63;;;;;;;;;;5036025;28;20135;-61
2022/04/16 10:10:17;;;;;;;20.55;11.02;;;;;;;;;;5044280;28;20035;-61
2022/04/16 10:12:59;;;;;;;14.70;11.70;;;;;;;;;;5041989;28;20112;-63
2022/04/16 10:15:27;;;;;;;13.63;10.25;;;;;;;;;;5049734;28;20082;-59
2022/04/16 10:17:54;;;;;;;15.88;9.50;;;;;;;;;;5036874;28;20083;-54
2022/04/16 10:20:21;;;;;;;14.15;10.73;;;;;;;;;;5047156;28;20032;-53
2022/04/16 10:22:54;;;;;;;16.55;9.48;;;;;;;;;;5032636;28;20045;-52
2022/04/16 10:25:34;;;;;;;12.13;8.63;;;;;;;;;;5042891;28;20175;-56
2022/04/16 10:28:07;;;;;;;11.13;8.10;;;;;;;;;;5040705;28;20033;-55
2022/04/16 10:30:37;;;;;;;13.68;8.65;;;;;;;;;;5043989;28;20052;-56
2022/04/16 10:33:15;;;;;;;12.20;8.27;;;;;;;;;;5029826;28;20484;-53
2022/04/16 10:35:48;;;;;;;10.70;8.15;;;;;;;;;;5036522;28;20071;-56
2022/04/16 10:38:21;;;;;;;12.00;8.38;;;;;;;;;;5039885;28;20116;-58
2022/04/16 10:40:54;;;;;;;14.40;8.20;;;;;;;;;;5048653;28;20025;-50
2022/04/16 10:43:25;;;;;;;10.43;7.50;;;;;;;;;;5041736;28;20140;-52
2022/04/16 10:46:00;;;;;;;11.20;7.10;;;;;;;;;;5048057;28;20029;-50
2022/04/16 10:48:28;;;;;;;10.88;7.50;;;;;;;;;;5040516;28;20633;-51
2022/04/16 10:50:56;;;;;;;12.20;7.97;;;;;;;;;;5039942;28;20429;-50
2022/04/16 10:53:30;;;;;;;10.25;6.68;;;;;;;;;;5048818;28;20479;-54
2022/04/16 10:55:56;;;;;;;9.32;6.07;;;;;;;;;;5051126;28;20025;-52
2022/04/16 10:58:29;;;;;;;9.43;6.53;;;;;;;;;;5048694;28;20025;-53
2022/04/16 11:01:04;;;;;;;9.30;5.57;;;;;;;;;;5048708;28;20021;-53
2022/04/16 11:03:31;;;;;;;10.35;5.10;;;;;;;;;;5048766;28;20127;-55
2022/04/16 11:06:07;;;;;;;11.13;5.60;;;;;;;;;;5043362;28;20020;-52
2022/04/16 11:08:37;;;;;;;7.20;4.70;;;;;;;;;;5039632;28;20048;-52
2022/04/16 11:11:04;;;;;;;8.25;5.10;;;;;;;;;;5048488;28;20040;-50
2022/04/16 11:13:31;;;;;;;9.43;4.63;;;;;;;;;;5048722;28;20037;-51
2022/04/16 11:15:58;;;;;;;7.55;4.72;;;;;;;;;;5048484;28;20017;-49
2022/04/16 11:18:25;;;;;;;10.65;5.45;;;;;;;;;;5043835;28;20144;-53
2022/04/16 11:20:55;;;;;;;10.45;5.10;;;;;;;;;;5035423;28;20029;-50
2022/04/16 11:23:25;;;;;;;7.88;4.70;;;;;;;;;;5046515;28;20041;-50
2022/04/16 11:34:20;;;;;;;16.85;4.90;;;;;;;;;;5048335;28;20502;-50
2022/04/16 11:36:50;;;;;;;10.82;4.15;;;;;;;;;;5047898;28;20024;-52
2022/04/16 11:39:26;;;;;;;10.82;4.57;;;;;;;;;;5048173;28;20059;-55
2022/04/16 11:41:53;;;;;;;16.83;4.60;;;;;;;;;;5047911;28;20029;-53
2022/04/16 11:44:52;;;;;;;14.40;4.18;;;;;;;;;;5047879;28;20044;-53
2022/04/16 11:47:19;;;;;;;9.90;5.05;;;;;;;;;;5043469;28;20550;-52
2022/04/16 11:49:46;;;;;;;11.05;4.53;;;;;;;;;;5047119;28;20108;-52
2022/04/16 11:52:13;;;;;;;8.35;4.43;;;;;;;;;;5046678;28;20029;-52
2022/04/16 11:54:39;;;;;;;8.30;4.05;;;;;;;;;;5041971;28;20025;-54
2022/04/16 11:57:05;;;;;;;10.20;3.47;;;;;;;;;;5040005;28;20025;-52
2022/04/16 11:59:32;;;;;;;10.85;4.18;;;;;;;;;;5045793;28;20075;-47
2022/04/16 12:01:59;;;;;;;8.35;4.63;;;;;;;;;;5038850;28;20490;-54
2022/04/16 12:04:39;;;;;;;12.48;4.55;;;;;;;;;;5043198;28;20499;-55
2022/04/16 12:07:12;;;;;;;8.75;4.40;;;;;;;;;;5038879;28;20040;-52
2022/04/16 12:09:43;;;;;;;6.45;4.25;;;;;;;;;;5039839;28;20036;-51
2022/04/16 12:12:12;;;;;;;9.18;4.57;;;;;;;;;;5041248;28;20147;-54
2022/04/16 12:14:44;;;;;;;8.82;4.88;;;;;;;;;;5044749;28;20104;-54
2022/04/16 12:17:10;;;;;;;17.00;4.78;;;;;;;;;;5047142;28;20730;-53
2022/04/16 12:19:37;;;;;;;8.00;4.63;;;;;;;;;;5046909;28;20080;-53
2022/04/16 12:22:03;;;;;;;7.80;4.15;;;;;;;;;;5045817;28;20441;-53
2022/04/16 12:24:29;;;;;;;6.35;4.13;;;;;;;;;;5046776;28;20060;-52
2022/04/16 12:26:56;;;;;;;8.18;4.38;;;;;;;;;;5046708;28;20057;-51
2022/04/16 12:29:30;;;;;;;6.90;4.25;;;;;;;;;;5047246;28;20063;-54
2022/04/16 12:31:59;;;;;;;9.52;4.68;;;;;;;;;;5046916;28;20044;-54
2022/04/16 12:34:26;;;;;;;11.02;5.28;;;;;;;;;;5047034;28;20021;-50
2022/04/16 12:36:52;;;;;;;7.82;5.03;;;;;;;;;;5047413;28;20097;-54
2022/04/16 12:39:19;;;;;;;9.95;5.05;;;;;;;;;;5049852;28;20082;-54
2022/04/16 12:41:45;;;;;;;9.70;5.15;;;;;;;;;;5043897;28;20044;-54
2022/04/16 12:44:11;;;;;;;7.35;4.45;;;;;;;;;;5049348;28;20076;-54
2022/04/16 12:46:37;;;;;;;8.38;4.95;;;;;;;;;;5037741;28;20043;-49
2022/04/16 12:49:04;;;;;;;8.13;5.20;;;;;;;;;;5042419;28;20024;-51
2022/04/16 12:51:29;;;;;;;8.25;5.00;;;;;;;;;;5051039;28;20045;-53
2022/04/16 12:53:56;;;;;;;7.88;4.07;;;;;;;;;;5051050;28;20798;-52
2022/04/16 12:56:22;;;;;;;7.47;4.30;;;;;;;;;;5051553;28;20045;-53
2022/04/16 12:58:48;;;;;;;6.55;4.50;;;;;;;;;;5051278;28;20858;-52
2022/04/16 13:01:14;;;;;;;9.75;4.72;;;;;;;;;;5051009;28;20511;-57
2022/04/16 13:03:40;;;;;;;8.93;4.25;;;;;;;;;;5051191;28;20491;-54
2022/04/16 13:06:06;;;;;;;7.35;4.20;;;;;;;;;;5050908;28;20044;-52
2022/04/16 13:08:32;;;;;;;10.77;4.10;;;;;;;;;;5051233;28;20140;-52
2022/04/16 13:10:58;;;;;;;7.97;3.45;;;;;;;;;;5050651;28;20017;-57
2022/04/16 13:13:24;;;;;;;8.05;4.57;;;;;;;;;;5050666;28;20554;-53
2022/04/16 13:15:51;;;;;;;7.75;3.35;;;;;;;;;;5041121;28;20120;-54
2022/04/16 13:18:17;;;;;;;6.07;3.40;;;;;;;;;;5051446;28;20079;-53
2022/04/16 13:20:43;;;;;;;7.05;3.22;;;;;;;;;;5050786;28;20121;-53
2022/04/16 13:23:09;;;;;;;7.45;3.10;;;;;;;;;;5038615;28;20128;-54
2022/04/16 13:25:35;;;;;;;5.95;3.33;;;;;;;;;;5049983;28;20395;-54
2022/04/16 13:28:02;;;;;;;7.85;3.63;;;;;;;;;;5037349;28;20770;-54
2022/04/16 13:30:28;;;;;;;5.68;2.67;;;;;;;;;;5039395;28;20663;-55
2022/04/16 13:32:54;;;;;;;6.95;2.83;;;;;;;;;;5040659;28;20459;-55
2022/04/16 13:35:20;;;;;;;6.25;2.78;;;;;;;;;;5037354;28;20032;-55
2022/04/16 13:37:46;;;;;;;6.00;2.78;;;;;;;;;;5050670;28;20068;-54
2022/04/16 13:42:57;;;;;;;6.10;2.78;;;;;;;;;;5041528;28;20098;-53
2022/04/16 13:45:23;;;;;;;5.43;2.90;;;;;;;;;;5050134;28;20018;-52
2022/04/16 13:47:49;;;;;;;5.18;3.00;;;;;;;;;;5042020;28;20404;-55
2022/04/16 13:50:15;;;;;;;5.30;3.20;;;;;;;;;;5037343;28;20028;-53
2022/04/16 13:52:42;;;;;;;7.18;3.28;;;;;;;;;;5044457;28;20812;-55
2022/04/16 13:55:08;;;;;;;6.90;3.28;;;;;;;;;;5030215;28;20112;-54
2022/04/16 13:57:34;;;;;;;7.47;3.65;;;;;;;;;;5036595;28;20025;-50
2022/04/16 14:00:01;;;;;;;7.47;2.88;;;;;;;;;;5030023;28;20040;-51
2022/04/16 14:02:28;;;;;;;6.28;3.13;;;;;;;;;;5026669;28;20055;-53
2022/04/16 14:07:40;;;;;;;5.68;3.17;;;;;;;;;;5033205;28;20102;-53
2022/04/16 14:10:06;;;;;;;8.13;3.67;;;;;;;;;;5029450;28;20735;-53
2022/04/16 14:12:34;;;;;;;5.70;2.75;;;;;;;;;;5044612;28;20127;-54
2022/04/16 14:15:00;;;;;;;5.88;3.15;;;;;;;;;;5049901;28;20025;-51
2022/04/16 14:17:26;;;;;;;6.95;3.38;;;;;;;;;;5047115;28;20036;-54
2022/04/16 14:19:52;;;;;;;7.60;3.53;;;;;;;;;;5035448;28;20029;-63
2022/04/16 14:22:18;;;;;;;5.05;3.20;;;;;;;;;;5039750;28;20749;-51
2022/04/16 14:24:44;;;;;;;5.68;2.95;;;;;;;;;;5049032;28;20538;-54
2022/04/16 14:27:11;;;;;;;5.40;2.75;;;;;;;;;;5040952;28;20098;-54
2022/04/16 14:29:37;;;;;;;6.03;3.00;;;;;;;;;;5050161;28;20111;-55
2022/04/16 14:32:04;;;;;;;5.30;3.10;;;;;;;;;;5042856;28;20558;-56
2022/04/16 14:34:30;;;;;;;4.93;3.00;;;;;;;;;;5047271;28;20032;-54
2022/04/16 14:36:58;;;;;;;5.60;3.08;;;;;;;;;;5035962;28;20502;-55
2022/04/16 14:39:24;;;;;;;4.75;3.28;;;;;;;;;;5049514;28;20037;-55
2022/04/16 14:41:50;;;;;;;5.97;2.97;;;;;;;;;;5049011;28;20487;-55
2022/04/16 14:44:16;;;;;;;6.15;3.03;;;;;;;;;;5049199;28;20045;-54
2022/04/16 14:46:42;;;;;;;7.10;3.70;;;;;;;;;;5049406;28;20040;-55
2022/04/16 14:49:10;;;;;;;5.35;3.25;;;;;;;;;;5041703;28;20159;-53
2022/04/16 14:51:39;;;;;;;5.82;3.33;;;;;;;;;;5049458;28;20025;-50